Germanville, Iowa
Current Conditions -  °F | °C
As of 11:35 PM on Wednesday 22 Oct 2014 (Local Time) from KFFL Reporting Station
Clear Clear  
Wind Chill: 42°   Ceiling: Unl
Heat Index: 46°   Visibility: NA
Dew Point: 39°   Wind: 8mph
Humidity: 76%   Direction: 150°SSE
Pressure: 30.18"   Gusts: NA
Location:  41.1253°N, 91.8296°W
Report Text: KFFL 230435Z AUTO 15007KT CLR 08/04 A3018 RMK AO2
Loading
Personal Weather Stations






























Interactive Weather Map
Tropical Storm Tracking
New forecast layout! Learn more

10-Day Weather Forecast

Advertisements
Track Severe Weather on mobile